createdAt,value
2017-04-12T05:13:02.264Z,9.52
2017-04-12T05:14:11.175Z,9.45
2017-04-12T05:15:20.672Z,9.52
2017-04-12T05:16:29.674Z,9.48
2017-04-12T05:17:39.544Z,9.52
2017-04-12T05:18:49.874Z,9.53
2017-04-12T05:19:58.778Z,9.53
2017-04-12T05:21:07.370Z,9.55
2017-04-12T05:22:15.964Z,9.57
2017-04-12T05:23:24.870Z,9.53
2017-04-12T05:24:33.776Z,9.59
2017-04-12T05:25:42.686Z,9.59
2017-04-12T05:26:51.909Z,9.59
2017-04-12T05:28:01.385Z,9.6
2017-04-12T05:29:10.939Z,9.57
2017-04-12T05:30:19.843Z,9.55
2017-04-12T05:31:28.756Z,9.63
2017-04-12T05:32:37.660Z,9.67
2017-04-12T05:33:46.895Z,9.71
2017-04-12T05:34:55.869Z,9.72
2017-04-12T05:36:04.607Z,9.66
2017-04-12T05:37:13.217Z,9.67
2017-04-12T05:38:22.375Z,9.72
2017-04-12T05:39:31.286Z,9.74
2017-04-12T05:40:40.195Z,9.77
2017-04-12T05:41:49.113Z,9.74
2017-04-12T05:42:58.365Z,9.74
2017-04-12T05:44:06.957Z,9.77
2017-04-12T05:45:16.499Z,9.75
2017-04-12T05:46:25.732Z,9.77
2017-04-12T05:47:34.961Z,9.81
2017-04-12T05:48:44.134Z,9.74
2017-04-12T05:49:53.045Z,9.8
2017-04-12T05:51:01.947Z,9.88
2017-04-12T05:52:10.539Z,9.8
2017-04-12T05:53:19.461Z,9.9
2017-04-12T05:54:28.065Z,9.85
2017-04-12T05:55:37.296Z,9.95
2017-04-12T05:56:46.212Z,9.93
2017-04-12T05:57:55.481Z,9.88
2017-04-12T05:59:05.360Z,9.95
2017-04-12T06:00:14.591Z,9.89
2017-04-12T06:01:23.557Z,9.95
2017-04-12T06:02:32.368Z,9.9
2017-04-12T06:03:41.911Z,9.92
2017-04-12T06:04:50.499Z,9.96
2017-04-12T06:05:59.404Z,9.98
2017-04-12T06:07:07.995Z,9.99
2017-04-12T06:08:16.897Z,10.02
2017-04-12T06:09:26.137Z,10.07
2017-04-12T06:10:35.683Z,10.03
2017-04-12T06:11:44.594Z,10.13
2017-04-12T06:12:53.515Z,10.14
2017-04-12T06:14:03.072Z,10.07
2017-04-12T06:15:12.307Z,10.15
2017-04-12T06:16:21.218Z,10.14
2017-04-12T06:17:29.810Z,10.2
2017-04-12T06:18:38.722Z,10.1
2017-04-12T06:19:47.308Z,10.15
2017-04-12T06:20:56.213Z,10.23
2017-04-12T06:22:04.806Z,10.2
2017-04-12T06:23:13.722Z,10.36
2017-04-12T06:24:22.314Z,10.31
2017-04-12T06:25:31.793Z,10.32
2017-04-12T06:26:40.575Z,10.28
2017-04-12T06:27:49.501Z,10.35
2017-04-12T06:28:58.808Z,10.41
2017-04-12T06:30:07.718Z,10.38
2017-04-12T06:31:17.261Z,10.41
2017-04-12T06:32:26.177Z,10.47
2017-04-12T06:33:35.757Z,10.49
2017-04-12T06:34:45.341Z,10.54
2017-04-12T06:35:54.908Z,10.54
2017-04-12T06:37:04.290Z,10.54
2017-04-12T06:38:13.311Z,10.61
2017-04-12T06:39:22.535Z,10.59
2017-04-12T06:40:31.765Z,10.65
2017-04-12T06:41:40.602Z,10.61
2017-04-12T06:42:49.513Z,10.54
2017-04-12T06:43:58.423Z,10.67
2017-04-12T06:45:07.021Z,10.69
2017-04-12T06:46:16.251Z,10.72
2017-04-12T06:47:25.165Z,10.73
2017-04-12T06:48:34.077Z,10.67
2017-04-12T06:49:43.307Z,10.76
2017-04-12T06:50:52.216Z,10.83
2017-04-12T06:52:01.124Z,10.8
2017-04-12T06:53:10.053Z,10.87
2017-04-12T06:54:18.738Z,10.85
2017-04-12T06:55:27.560Z,10.98
2017-04-12T06:56:38.122Z,11
2017-04-12T06:57:47.312Z,10.95
2017-04-12T06:58:56.553Z,11.06
2017-04-12T07:00:05.462Z,10.98
2017-04-12T07:01:14.386Z,11.03
2017-04-12T07:02:23.294Z,10.97
2017-04-12T07:03:31.880Z,11.12
2017-04-12T07:04:41.112Z,11.18
2017-04-12T07:05:49.740Z,11.18
2017-04-12T07:06:58.807Z,11.28
2017-04-12T07:08:07.978Z,11.28
2017-04-12T07:09:16.585Z,11.21
2017-04-12T07:10:26.187Z,11.33
2017-04-12T07:11:35.117Z,11.21
2017-04-12T07:12:44.438Z,11.23
2017-04-12T07:13:53.812Z,11.31
2017-04-12T07:15:03.003Z,11.38
2017-04-12T07:16:12.322Z,11.39
2017-04-12T07:17:20.914Z,11.38
2017-04-12T07:18:30.149Z,11.42
2017-04-12T07:19:39.056Z,11.45
2017-04-12T07:20:48.297Z,11.53
2017-04-12T07:21:57.224Z,11.53
2017-04-12T07:23:05.822Z,11.66
2017-04-12T07:24:15.088Z,11.76
2017-04-12T07:25:23.682Z,11.86
2017-04-12T07:26:32.913Z,11.91
2017-04-12T07:27:41.835Z,11.94
2017-04-12T07:28:51.114Z,12.04
2017-04-12T07:30:00.663Z,12.04
2017-04-12T07:31:09.579Z,12.04
2017-04-12T07:32:18.811Z,12.08
2017-04-12T07:33:27.725Z,12.13
2017-04-12T07:34:36.643Z,12.16
2017-04-12T07:35:45.866Z,12.16
2017-04-12T07:36:54.773Z,12.15
2017-04-12T07:38:03.685Z,12.19
2017-04-12T07:39:12.302Z,12.18
2017-04-12T07:40:21.229Z,12.23
2017-04-12T07:41:30.137Z,12.22
2017-04-12T07:42:38.731Z,12.36
2017-04-12T07:43:47.964Z,12.25
2017-04-12T07:44:57.518Z,12.41
2017-04-12T07:46:06.742Z,12.43
2017-04-12T07:47:15.657Z,12.52
2017-04-12T07:48:24.255Z,12.63
2017-04-12T07:49:33.183Z,12.7
2017-04-12T07:50:42.782Z,12.77
2017-04-12T07:51:51.586Z,12.86
2017-04-12T07:53:01.028Z,12.98
2017-04-12T07:54:09.950Z,12.98
2017-04-12T07:55:19.090Z,13.03
2017-04-12T07:56:28.219Z,13.14
2017-04-12T07:57:40.842Z,13.2
2017-04-12T07:58:50.399Z,13.19
2017-04-12T07:59:59.319Z,13.21
2017-04-12T08:01:08.591Z,13.21
2017-04-12T08:02:17.611Z,13.21
2017-04-12T08:03:26.524Z,13.19
2017-04-12T08:04:35.823Z,13.25
2017-04-12T08:05:45.186Z,13.17
2017-04-12T08:06:54.414Z,13.24
2017-04-12T08:08:04.280Z,13.14
2017-04-12T08:09:13.507Z,13.27
2017-04-12T08:10:22.958Z,13.17
2017-04-12T08:11:32.192Z,13.16
2017-04-12T08:12:41.349Z,13.25
2017-04-12T08:13:50.924Z,13.25
2017-04-12T08:15:00.139Z,13.27
2017-04-12T08:16:09.540Z,13.24
2017-04-12T08:17:18.779Z,13.29
2017-04-12T08:18:29.256Z,13.17
2017-04-12T08:19:38.706Z,13.27
2017-04-12T08:20:48.277Z,13.28
2017-04-12T08:21:57.279Z,13.35
2017-04-12T08:23:06.202Z,13.36
2017-04-12T08:24:15.129Z,13.35
2017-04-12T08:25:24.047Z,13.4
2017-04-12T08:26:32.969Z,13.4
2017-04-12T08:27:41.890Z,13.44
2017-04-12T08:28:51.767Z,13.45
2017-04-12T08:30:00.682Z,13.5
2017-04-12T08:31:09.923Z,13.51
2017-04-12T08:32:18.844Z,13.53
2017-04-12T08:33:27.870Z,13.5
2017-04-12T08:34:36.674Z,13.51
2017-04-12T08:35:45.593Z,13.51
2017-04-12T08:36:54.511Z,13.51
2017-04-12T08:38:03.491Z,13.53
2017-04-12T08:39:12.850Z,13.54
2017-04-12T08:40:21.852Z,13.63
2017-04-12T08:41:30.486Z,13.76
2017-04-12T08:42:39.731Z,13.78
2017-04-12T08:43:48.986Z,14.01
2017-04-12T08:44:57.899Z,14.15
2017-04-12T08:46:06.846Z,14.31
2017-04-12T08:47:15.902Z,14.34
2017-04-12T08:48:25.138Z,14.48
2017-04-12T08:49:33.748Z,14.6
2017-04-12T08:50:42.979Z,14.7
2017-04-12T08:51:52.213Z,14.71
2017-04-12T08:53:01.508Z,14.7
2017-04-12T08:54:10.321Z,14.74
2017-04-12T08:55:19.979Z,14.66
2017-04-12T08:56:28.912Z,14.7
2017-04-12T08:57:38.147Z,14.74
2017-04-12T08:58:47.065Z,14.75
2017-04-12T08:59:55.983Z,14.66
2017-04-12T09:01:04.579Z,14.75
2017-04-12T09:02:13.810Z,14.6
2017-04-12T09:03:22.402Z,14.61
2017-04-12T09:04:31.568Z,14.79
2017-04-12T09:05:41.404Z,14.71
2017-04-12T09:06:50.585Z,14.93
2017-04-12T09:07:59.183Z,14.83
2017-04-12T09:09:08.130Z,14.9
2017-04-12T09:10:17.707Z,15.02
2017-04-12T09:11:26.631Z,15.05
2017-04-12T09:12:35.265Z,15.12
2017-04-12T09:13:44.837Z,15.2
2017-04-12T09:14:53.439Z,15.22
2017-04-12T09:16:02.355Z,15.37
2017-04-12T09:17:11.275Z,15.31
2017-04-12T09:18:19.891Z,15.33
2017-04-12T09:19:29.139Z,15.31
2017-04-12T09:20:38.686Z,15.35
2017-04-12T09:21:48.285Z,15.23
2017-04-12T09:22:57.525Z,15.31
2017-04-12T09:24:06.768Z,15.45
2017-04-12T09:25:15.696Z,15.45
2017-04-12T09:26:24.926Z,15.37
2017-04-12T09:27:33.861Z,15.45
2017-04-12T09:28:42.775Z,15.45
2017-04-12T09:29:51.389Z,15.41
2017-04-12T09:31:00.977Z,15.44
2017-04-12T09:32:09.900Z,15.51
2017-04-12T09:33:18.844Z,15.49
2017-04-12T09:34:27.775Z,15.51
2017-04-12T09:35:36.700Z,15.62
2017-04-12T09:36:45.990Z,15.67
2017-04-12T09:37:54.602Z,15.68
2017-04-12T09:39:03.514Z,15.68
2017-04-12T09:40:12.431Z,15.65
2017-04-12T09:41:21.533Z,15.63
2017-04-12T09:42:30.608Z,15.75
2017-04-12T09:43:39.806Z,15.77
2017-04-12T09:44:49.127Z,15.71
2017-04-12T09:45:57.735Z,15.75
2017-04-12T09:47:06.660Z,15.67
2017-04-12T09:48:15.575Z,15.68
2017-04-12T09:49:24.188Z,15.68
2017-04-12T09:50:33.112Z,15.67
2017-04-12T09:51:41.961Z,15.75
2017-04-12T09:52:50.874Z,15.74
2017-04-12T09:53:59.787Z,15.75
2017-04-12T09:55:08.392Z,15.71
2017-04-12T09:56:16.986Z,15.75
2017-04-12T09:57:26.224Z,15.68
2017-04-12T09:58:35.981Z,15.58
2017-04-12T09:59:44.908Z,15.47
2017-04-12T10:00:54.441Z,15.52
2017-04-12T10:02:03.679Z,15.47
2017-04-12T10:03:12.597Z,15.4
2017-04-12T10:04:21.529Z,15.44
2017-04-12T10:05:30.131Z,15.4
2017-04-12T10:06:39.068Z,15.51
2017-04-12T10:07:47.673Z,15.44
2017-04-12T10:08:56.590Z,15.47
2017-04-12T10:10:05.523Z,15.52
2017-04-12T10:11:14.128Z,15.65
2017-04-12T10:12:23.366Z,15.68
2017-04-12T10:13:32.623Z,15.83
2017-04-12T10:14:41.229Z,15.8
2017-04-12T10:15:49.833Z,15.83
2017-04-12T10:16:58.449Z,15.84
2017-04-12T10:18:07.048Z,15.93
2017-04-12T10:19:15.650Z,15.95
2017-04-12T10:20:24.876Z,15.93
2017-04-12T10:21:33.787Z,15.93
2017-04-12T10:22:42.408Z,15.78
2017-04-12T10:23:51.335Z,15.8
2017-04-12T10:24:59.944Z,15.8
2017-04-12T10:26:08.858Z,15.78
2017-04-12T10:27:17.773Z,15.73
2017-04-12T10:28:26.374Z,15.77
2017-04-12T10:29:35.998Z,15.6
2017-04-12T10:30:44.601Z,15.52
2017-04-12T10:31:53.192Z,15.53
2017-04-12T10:33:02.105Z,15.45
2017-04-12T10:34:11.338Z,15.38
2017-04-12T10:35:20.569Z,15.4
2017-04-12T10:36:29.484Z,15.41
2017-04-12T10:37:38.082Z,15.34
2017-04-12T10:38:46.686Z,15.2
2017-04-12T10:39:55.927Z,15.13
2017-04-12T10:41:05.160Z,15.2
2017-04-12T10:42:14.711Z,15.16
2017-04-12T10:43:23.939Z,15.18
2017-04-12T10:44:33.498Z,15.23
2017-04-12T10:45:42.417Z,15.16
2017-04-12T10:46:51.018Z,15.2
2017-04-12T10:48:00.255Z,15.1
2017-04-12T10:49:09.804Z,15.12
2017-04-12T10:50:18.712Z,15.18
2017-04-12T10:51:27.901Z,15.1
2017-04-12T10:52:37.806Z,15.07
2017-04-12T10:53:46.729Z,15.12
2017-04-12T10:54:56.288Z,15.1
2017-04-12T10:56:04.891Z,15.2
2017-04-12T10:57:14.134Z,15.15
2017-04-12T10:58:23.110Z,15.07
2017-04-12T10:59:32.393Z,15.16
2017-04-12T11:00:41.626Z,15.23
2017-04-12T11:01:50.541Z,15.2
2017-04-12T11:02:59.458Z,15.19
2017-04-12T11:04:08.370Z,15.25
2017-04-12T11:05:17.922Z,15.3
2017-04-12T11:06:27.476Z,15.08
2017-04-12T11:07:36.394Z,15.16
2017-04-12T11:08:44.990Z,15.18
2017-04-12T11:09:53.581Z,15.26
2017-04-12T11:11:02.170Z,15.18
2017-04-12T11:12:11.406Z,15.31
2017-04-12T11:13:20.316Z,15.3
2017-04-12T11:14:29.268Z,15.31
2017-04-12T11:15:38.203Z,15.34
2017-04-12T11:16:47.544Z,15.35
2017-04-12T11:17:56.552Z,15.41
2017-04-12T11:19:05.778Z,15.34
2017-04-12T11:20:14.696Z,15.44
2017-04-12T11:21:23.382Z,15.4
2017-04-12T11:22:32.636Z,15.43
2017-04-12T11:23:41.905Z,15.43
2017-04-12T11:24:51.014Z,15.51
2017-04-12T11:25:59.696Z,15.49
2017-04-12T11:27:08.969Z,15.47
2017-04-12T11:28:18.309Z,15.4
2017-04-12T11:29:27.963Z,15.38
2017-04-12T11:30:36.888Z,15.45
2017-04-12T11:31:45.782Z,15.35
2017-04-12T11:32:54.762Z,15.27
2017-04-12T11:34:03.674Z,15.12
2017-04-12T11:35:12.863Z,15.16
2017-04-12T11:36:22.100Z,15.07
2017-04-12T11:37:31.382Z,15.1
2017-04-12T11:38:41.158Z,15.13
2017-04-12T11:39:49.769Z,15.05
2017-04-12T11:40:58.424Z,15.07
2017-04-12T11:42:07.028Z,15.08
2017-04-12T11:43:16.281Z,15.1
2017-04-12T11:44:25.451Z,15.05
2017-04-12T11:45:34.218Z,15.04
2017-04-12T11:46:43.720Z,15.1
2017-04-12T11:47:52.660Z,15.07
2017-04-12T11:49:01.752Z,15.07
2017-04-12T11:50:11.096Z,15
2017-04-12T11:51:20.014Z,15
2017-04-12T11:52:29.840Z,15.02
2017-04-12T11:53:39.226Z,14.95
2017-04-12T11:54:48.428Z,14.94
2017-04-12T11:55:58.243Z,15.01
2017-04-12T11:57:07.779Z,14.98
2017-04-12T11:58:16.916Z,15.07
2017-04-12T11:59:26.238Z,15.13
2017-04-12T12:00:35.204Z,15.1
2017-04-12T12:01:44.457Z,15.1
2017-04-12T12:02:53.578Z,15.07
2017-04-12T12:04:02.597Z,15.1
2017-04-12T12:05:11.249Z,15.08
2017-04-12T12:06:21.236Z,15.1
2017-04-12T12:07:33.182Z,15.13
2017-04-12T12:08:42.790Z,15.08
2017-04-12T12:09:51.438Z,15.1
2017-04-12T12:11:01.084Z,15.12
2017-04-12T12:12:10.368Z,15.2
2017-04-12T12:13:19.364Z,15.19
2017-04-12T12:14:28.336Z,15.13
2017-04-12T12:15:37.601Z,15.05
2017-04-12T12:16:46.840Z,14.95
2017-04-12T12:17:55.803Z,15.01
2017-04-12T12:19:04.783Z,15
2017-04-12T12:20:14.045Z,14.9
2017-04-12T12:21:23.333Z,14.87
2017-04-12T12:22:31.933Z,14.89
2017-04-12T12:23:41.223Z,14.8
2017-04-12T12:24:50.186Z,14.8
2017-04-12T12:25:59.944Z,14.7
2017-04-12T12:27:08.623Z,14.71
2017-04-12T12:28:17.534Z,14.67
2017-04-12T12:29:26.769Z,14.61
2017-04-12T12:30:36.014Z,14.67
2017-04-12T12:31:44.935Z,14.64
2017-04-12T12:32:53.541Z,14.61
2017-04-12T12:34:02.781Z,14.82
2017-04-12T12:35:11.697Z,14.82
2017-04-12T12:36:20.294Z,14.8
2017-04-12T12:37:29.554Z,14.79
2017-04-12T12:38:38.477Z,14.82
2017-04-12T12:39:47.399Z,14.83
2017-04-12T12:40:56.633Z,14.83
2017-04-12T12:42:05.555Z,14.75
2017-04-12T12:43:14.403Z,14.7
2017-04-12T12:44:23.323Z,14.64
2017-04-12T12:45:32.239Z,14.8
2017-04-12T12:46:41.460Z,14.67
2017-04-12T12:47:50.312Z,14.6
2017-04-12T12:48:59.856Z,14.63
2017-04-12T12:50:08.777Z,14.63
2017-04-12T12:51:17.370Z,14.61
2017-04-12T12:52:26.835Z,14.6
2017-04-12T12:53:35.855Z,14.53
2017-04-12T12:54:45.418Z,14.49
2017-04-12T12:55:54.716Z,14.61
2017-04-12T12:57:04.056Z,14.59
2017-04-12T12:58:13.031Z,14.63
2017-04-12T12:59:22.593Z,14.66
2017-04-12T13:00:31.213Z,14.71
2017-04-12T13:01:40.465Z,14.69
2017-04-12T13:02:49.080Z,14.7
2017-04-12T13:03:58.314Z,14.64
2017-04-12T13:05:07.314Z,14.6
2017-04-12T13:06:16.236Z,14.53
2017-04-12T13:07:25.161Z,14.59
2017-04-12T13:08:34.016Z,14.63
2017-04-12T13:09:42.615Z,14.61
2017-04-12T13:10:51.217Z,14.66
2017-04-12T13:12:00.132Z,14.7
2017-04-12T13:13:09.048Z,14.67
2017-04-12T13:14:17.962Z,14.75
2017-04-12T13:15:26.877Z,14.71
2017-04-12T13:16:35.484Z,14.67
2017-04-12T13:17:44.403Z,14.74
2017-04-12T13:18:52.992Z,14.61
2017-04-12T13:20:01.909Z,14.64
2017-04-12T13:21:10.831Z,14.66
2017-04-12T13:22:19.750Z,14.67
2017-04-12T13:23:28.679Z,14.75
2017-04-12T13:24:38.268Z,14.86
2017-04-12T13:25:47.501Z,14.8
2017-04-12T13:26:56.411Z,14.8
2017-04-12T13:28:05.327Z,14.82
2017-04-12T13:29:14.496Z,14.8
2017-04-12T13:30:23.413Z,14.85
2017-04-12T13:31:32.329Z,14.8
2017-04-12T13:32:41.567Z,14.93
2017-04-12T13:33:50.166Z,14.77
2017-04-12T13:34:58.770Z,14.74
2017-04-12T13:36:07.701Z,14.8
2017-04-12T13:37:16.942Z,14.79
2017-04-12T13:38:25.616Z,14.77
2017-04-12T13:39:35.192Z,14.79
2017-04-12T13:40:44.743Z,14.79
2017-04-12T13:41:53.338Z,14.89
2017-04-12T13:43:02.562Z,14.86
2017-04-12T13:44:11.475Z,14.87
2017-04-12T13:45:20.067Z,14.94
2017-04-12T13:46:29.019Z,15.1
2017-04-12T13:47:38.044Z,15.1
2017-04-12T13:48:46.643Z,15.08
2017-04-12T13:49:55.876Z,15.05
2017-04-12T13:51:05.104Z,15.01
2017-04-12T13:52:14.343Z,15.13
2017-04-12T13:53:23.919Z,15.05
2017-04-12T13:54:32.510Z,15
2017-04-12T13:55:41.420Z,15
2017-04-12T13:56:50.042Z,15.04
2017-04-12T13:57:58.636Z,14.97
2017-04-12T13:59:07.546Z,14.93
2017-04-12T14:00:16.786Z,14.97
2017-04-12T14:01:26.035Z,14.83
2017-04-12T14:02:35.168Z,14.93
2017-04-12T14:03:44.144Z,14.87
2017-04-12T14:04:54.007Z,14.9
2017-04-12T14:06:03.215Z,15.01
2017-04-12T14:07:12.123Z,15.15
2017-04-12T14:08:21.042Z,15.16
2017-04-12T14:09:29.966Z,15.31
2017-04-12T14:10:38.554Z,15.34
2017-04-12T14:11:47.153Z,15.35
2017-04-12T14:12:56.390Z,15.45
2017-04-12T14:14:05.612Z,15.4
2017-04-12T14:15:14.532Z,15.41
2017-04-12T14:16:23.445Z,15.38
2017-04-12T14:17:32.047Z,15.33
2017-04-12T14:18:41.278Z,15.26
2017-04-12T14:19:49.872Z,15.25
2017-04-12T14:20:58.467Z,15.13
2017-04-12T14:22:07.060Z,15.13
2017-04-12T14:23:16.010Z,15.1
2017-04-12T14:24:24.607Z,15.23
2017-04-12T14:25:33.992Z,15.26
2017-04-12T14:26:43.335Z,15.3
2017-04-12T14:27:51.939Z,15.45
2017-04-12T14:29:00.848Z,15.49
2017-04-12T14:30:10.090Z,15.55
2017-04-12T14:31:19.650Z,15.68
2017-04-12T14:32:29.197Z,15.8
2017-04-12T14:33:38.125Z,15.73
2017-04-12T14:34:47.364Z,15.78
2017-04-12T14:35:56.597Z,15.81
2017-04-12T14:37:05.535Z,15.78
2017-04-12T14:38:14.456Z,15.92
2017-04-12T14:39:23.056Z,15.78
2017-04-12T14:40:32.297Z,15.71
2017-04-12T14:41:41.560Z,15.75
2017-04-12T14:42:50.169Z,15.7
2017-04-12T14:43:59.424Z,15.68
2017-04-12T14:45:08.044Z,15.53
2017-04-12T14:46:17.287Z,15.53
2017-04-12T14:47:26.234Z,15.38
2017-04-12T14:48:35.404Z,15.4
2017-04-12T14:49:44.639Z,15.37
2017-04-12T14:50:53.570Z,15.31
2017-04-12T14:52:02.176Z,15.16
2017-04-12T14:53:11.092Z,15.15
2017-04-12T14:54:20.004Z,15.26
2017-04-12T14:55:29.226Z,15.22
2017-04-12T14:56:38.779Z,15.22
2017-04-12T14:57:47.743Z,15.15
2017-04-12T14:58:56.657Z,15.16
2017-04-12T15:00:05.259Z,15.16
2017-04-12T15:01:13.852Z,15.16
2017-04-12T15:02:22.446Z,15.19
2017-04-12T15:03:31.556Z,15.16
2017-04-12T15:04:40.628Z,15.08
2017-04-12T15:05:49.689Z,15.12
2017-04-12T15:06:58.607Z,15.07
2017-04-12T15:08:07.528Z,15.04
2017-04-12T15:09:16.570Z,14.97
2017-04-12T15:10:25.755Z,14.95
2017-04-12T15:11:35.307Z,14.85
2017-04-12T15:12:44.253Z,14.89
2017-04-12T15:13:53.263Z,14.79
2017-04-12T15:15:02.181Z,14.71
2017-04-12T15:16:11.109Z,14.82
2017-04-12T15:17:20.349Z,14.74
2017-04-12T15:18:29.622Z,14.79
2017-04-12T15:19:38.853Z,14.6
2017-04-12T15:20:48.274Z,14.67
2017-04-12T15:21:57.500Z,14.53
2017-04-12T15:23:06.742Z,14.48
2017-04-12T15:24:15.986Z,14.33
2017-04-12T15:25:24.897Z,14.34
2017-04-12T15:26:34.130Z,14.3
2017-04-12T15:27:43.044Z,14.24
2017-04-12T15:28:52.022Z,14.23
2017-04-12T15:30:00.959Z,14.19
2017-04-12T15:31:10.153Z,14.09
2017-04-12T15:32:18.807Z,13.97
2017-04-12T15:33:27.412Z,13.94
2017-04-12T15:34:36.696Z,13.87
2017-04-12T15:35:45.943Z,13.86
2017-04-12T15:36:54.570Z,13.76
2017-04-12T15:38:03.531Z,13.73
2017-04-12T15:39:12.122Z,13.81
2017-04-12T15:40:21.053Z,13.73
2017-04-12T15:41:29.906Z,13.78
2017-04-12T15:42:38.523Z,13.73
2017-04-12T15:43:47.523Z,13.63
2017-04-12T15:44:56.456Z,13.62
2017-04-12T15:46:05.373Z,13.63
2017-04-12T15:47:14.372Z,13.53
2017-04-12T15:48:24.107Z,13.58
2017-04-12T15:49:32.777Z,13.63
2017-04-12T15:50:41.688Z,13.48
2017-04-12T15:51:51.174Z,13.45
2017-04-12T15:53:00.144Z,13.48
2017-04-12T15:54:09.454Z,13.47
2017-04-12T15:55:18.778Z,13.4
2017-04-12T15:56:27.470Z,13.39
2017-04-12T15:57:36.738Z,13.39
2017-04-12T15:58:46.358Z,13.32
2017-04-12T15:59:54.956Z,13.31
2017-04-12T16:01:04.513Z,13.19
2017-04-12T16:02:13.442Z,13.16
2017-04-12T16:03:23.024Z,13.19
2017-04-12T16:04:31.626Z,13.24
2017-04-12T16:05:40.542Z,13.17
2017-04-12T16:06:49.465Z,13.19
2017-04-12T16:07:58.693Z,13.17
2017-04-12T16:09:07.614Z,13.13
2017-04-12T16:10:16.216Z,13.06
2017-04-12T16:11:25.776Z,12.98
2017-04-12T16:12:34.418Z,12.91
2017-04-12T16:13:43.684Z,12.74
2017-04-12T16:14:52.923Z,12.62
2017-04-12T16:16:01.842Z,12.65
2017-04-12T16:17:10.769Z,12.55
2017-04-12T16:18:19.999Z,12.48
2017-04-12T16:19:29.240Z,12.51
2017-04-12T16:20:38.163Z,12.41
2017-04-12T16:21:47.089Z,12.33
2017-04-12T16:22:56.165Z,12.34
2017-04-12T16:24:05.403Z,12.25
2017-04-12T16:25:14.324Z,12.25
2017-04-12T16:26:22.927Z,12.25
2017-04-12T16:27:32.157Z,12.15
2017-04-12T16:28:41.070Z,12.16
2017-04-12T16:29:50.293Z,12.07
2017-04-12T16:30:59.244Z,11.95
2017-04-12T16:32:08.483Z,12
2017-04-12T16:33:17.833Z,11.86
2017-04-12T16:34:26.756Z,11.94
2017-04-12T16:35:36.313Z,11.82
2017-04-12T16:36:45.223Z,11.91
2017-04-12T16:37:53.822Z,11.88
2017-04-12T16:39:02.496Z,11.85
2017-04-12T16:40:11.419Z,11.79
2017-04-12T16:41:20.032Z,11.7
2017-04-12T16:42:28.640Z,11.57
2017-04-12T16:43:37.866Z,11.61
2017-04-12T16:44:46.843Z,11.43
2017-04-12T16:45:55.826Z,11.45
2017-04-12T16:47:05.451Z,11.53
2017-04-12T16:48:14.216Z,11.52
2017-04-12T16:49:23.475Z,11.52
2017-04-12T16:50:32.621Z,11.52
2017-04-12T16:51:41.231Z,11.49
2017-04-12T16:52:50.493Z,11.51
2017-04-12T16:53:59.748Z,11.49
2017-04-12T16:55:08.409Z,11.51
2017-04-12T16:56:17.012Z,11.57
2017-04-12T16:57:25.931Z,11.61
2017-04-12T16:58:35.205Z,11.53
2017-04-12T16:59:44.444Z,11.57
2017-04-12T17:00:53.045Z,11.52
2017-04-12T17:02:01.962Z,11.53
2017-04-12T17:03:10.888Z,11.48
2017-04-12T17:04:20.164Z,11.59
2017-04-12T17:05:29.501Z,11.61
2017-04-12T17:06:38.491Z,11.63
2017-04-12T17:07:47.450Z,11.57
2017-04-12T17:08:56.122Z,11.52
2017-04-12T17:10:05.755Z,11.51
2017-04-12T17:11:14.676Z,11.52
2017-04-12T17:12:23.350Z,11.48
2017-04-12T17:13:31.990Z,11.45
2017-04-12T17:14:41.222Z,11.48
2017-04-12T17:15:50.300Z,11.51
2017-04-12T17:16:59.441Z,11.41
2017-04-12T17:18:08.684Z,11.45
2017-04-12T17:19:17.301Z,11.53
2017-04-12T17:20:27.326Z,11.49
2017-04-12T17:21:36.137Z,11.45
2017-04-12T17:22:45.060Z,11.45
2017-04-12T17:23:54.625Z,11.43
2017-04-12T17:25:03.538Z,11.51
2017-04-12T17:26:12.894Z,11.46
2017-04-12T17:27:22.552Z,11.35
2017-04-12T17:28:32.391Z,11.42
2017-04-12T17:29:41.442Z,11.35
2017-04-12T17:30:51.744Z,11.42
2017-04-12T17:32:00.864Z,11.39
2017-04-12T17:33:09.777Z,11.41
2017-04-12T17:34:19.133Z,11.49
2017-04-12T17:35:27.845Z,11.45
2017-04-12T17:36:36.801Z,11.43
2017-04-12T17:37:46.084Z,11.42
2017-04-12T17:38:54.719Z,11.43
2017-04-12T17:40:03.946Z,11.49
2017-04-12T17:41:12.953Z,11.41
2017-04-12T17:42:21.865Z,11.35
2017-04-12T17:43:30.815Z,11.42
2017-04-12T17:44:39.496Z,11.45
2017-04-12T17:45:48.134Z,11.38
2017-04-12T17:46:56.732Z,11.34
2017-04-12T17:48:05.799Z,11.43
2017-04-12T17:49:14.886Z,11.38
2017-04-12T17:50:23.690Z,11.43
2017-04-12T17:51:32.688Z,11.42
2017-04-12T17:52:42.152Z,11.39
2017-04-12T17:53:51.073Z,11.43
2017-04-12T17:54:59.752Z,11.38
2017-04-12T17:56:08.445Z,11.34
2017-04-12T17:57:17.965Z,11.39
2017-04-12T17:58:26.939Z,11.38
2017-04-12T17:59:35.681Z,11.38
2017-04-12T18:00:45.023Z,11.39
2017-04-12T18:01:54.446Z,11.35
2017-04-12T18:03:03.379Z,11.43
2017-04-12T18:04:12.350Z,11.39
2017-04-12T18:05:21.324Z,11.38
2017-04-12T18:06:30.347Z,11.48
2017-04-12T18:07:39.386Z,11.46
2017-04-12T18:08:48.256Z,11.42
2017-04-12T18:09:57.256Z,11.34
2017-04-12T18:11:06.370Z,11.41
2017-04-12T18:12:15.908Z,11.35
2017-04-12T18:13:24.886Z,11.41
2017-04-12T18:14:33.764Z,11.41
2017-04-12T18:15:43.216Z,11.42
2017-04-12T18:16:52.190Z,11.38
2017-04-12T18:18:01.499Z,11.42
2017-04-12T18:19:10.644Z,11.38
2017-04-12T18:20:19.714Z,11.42
2017-04-12T18:21:28.742Z,11.38
2017-04-12T18:22:37.498Z,11.42
2017-04-12T18:23:46.530Z,11.39
2017-04-12T18:24:55.564Z,11.35
2017-04-12T18:26:04.853Z,11.39
2017-04-12T18:27:14.271Z,11.42
2017-04-12T18:28:23.609Z,11.45
2017-04-12T18:29:33.038Z,11.46
2017-04-12T18:30:41.869Z,11.41
2017-04-12T18:31:51.715Z,11.38
2017-04-12T18:33:00.456Z,11.34
2017-04-12T18:34:09.093Z,11.35
2017-04-12T18:35:19.097Z,11.41
2017-04-12T18:36:28.272Z,11.43
2017-04-12T18:37:38.293Z,11.45
2017-04-12T18:38:47.284Z,11.34
2017-04-12T18:39:56.517Z,11.34
2017-04-12T18:41:05.425Z,11.27
2017-04-12T18:42:14.660Z,11.39
2017-04-12T18:43:24.213Z,11.31
2017-04-12T18:44:33.131Z,11.26
2017-04-12T18:45:41.886Z,11.34
2017-04-12T18:46:51.119Z,11.34
2017-04-12T18:48:00.034Z,11.31
2017-04-12T18:49:09.273Z,11.21
2017-04-12T18:50:18.185Z,11.24
2017-04-12T18:51:27.093Z,11.39
2017-04-12T18:52:36.017Z,11.38
2017-04-12T18:53:45.182Z,11.28
2017-04-12T18:54:54.421Z,11.31
2017-04-12T18:56:03.336Z,11.31
2017-04-12T18:57:11.939Z,11.35
2017-04-12T18:58:20.540Z,11.41
2017-04-12T18:59:29.455Z,11.24
2017-04-12T19:00:38.743Z,11.27
2017-04-12T19:01:47.973Z,11.27
2017-04-12T19:02:56.932Z,11.27
2017-04-12T19:04:05.843Z,11.34
2017-04-12T19:05:15.098Z,11.27
2017-04-12T19:06:24.029Z,11.26
2017-04-12T19:07:33.273Z,11.34
2017-04-12T19:08:42.180Z,11.28
2017-04-12T19:09:51.730Z,11.38
2017-04-12T19:11:00.959Z,11.35
2017-04-12T19:12:10.658Z,11.41
2017-04-12T19:13:19.355Z,11.38
2017-04-12T19:14:28.579Z,11.24
2017-04-12T19:15:37.217Z,11.39
2017-04-12T19:16:46.138Z,11.31
2017-04-12T19:17:55.098Z,11.31
2017-04-12T19:19:04.332Z,11.24
2017-04-12T19:20:13.243Z,11.26
2017-04-12T19:21:22.152Z,11.39
2017-04-12T19:22:31.515Z,11.28
2017-04-12T19:23:40.441Z,11.26
2017-04-12T19:24:49.044Z,11.31
2017-04-12T19:25:57.656Z,11.27
2017-04-12T19:27:06.577Z,11.27
2017-04-12T19:28:16.132Z,11.28
2017-04-12T19:29:25.369Z,11.27
2017-04-12T19:30:33.957Z,11.23
2017-04-12T19:31:42.863Z,11.27
2017-04-12T19:32:51.844Z,11.24
2017-04-12T19:34:01.074Z,11.27
2017-04-12T19:35:10.003Z,11.24
2017-04-12T19:36:18.915Z,11.23
2017-04-12T19:37:27.885Z,11.23
2017-04-12T19:38:37.125Z,11.27
2017-04-12T19:39:45.721Z,11.23
2017-04-12T19:40:54.638Z,11.23
2017-04-12T19:42:03.548Z,11.26
2017-04-12T19:43:12.462Z,11.2
2017-04-12T19:44:21.369Z,11.15
2017-04-12T19:45:31.230Z,11.24
2017-04-12T19:46:41.135Z,11.28
2017-04-12T19:47:49.776Z,11.23
2017-04-12T19:48:58.370Z,11.23
2017-04-12T19:50:07.280Z,11.15
2017-04-12T19:51:16.206Z,11.13
2017-04-12T19:52:25.117Z,11.24
2017-04-12T19:53:33.734Z,11.1
2017-04-12T19:54:42.961Z,11.12
2017-04-12T19:55:51.867Z,11.21
2017-04-12T19:57:01.101Z,11.2
2017-04-12T19:58:09.689Z,11.15
2017-04-12T19:59:18.608Z,11.16
2017-04-12T20:00:27.202Z,11.06
2017-04-12T20:01:36.121Z,11.09
2017-04-12T20:02:45.033Z,11.1
2017-04-12T20:03:54.585Z,11.02
2017-04-12T20:05:03.498Z,10.97
2017-04-12T20:06:12.429Z,10.97
2017-04-12T20:07:22.059Z,11